sensor_id;sensor_type;location;lat;lon;timestamp;pressure;altitude;pressure_sealevel;temperature;humidity
6198;BME280;3132;42.622;23.328;2022-12-18T00:01:35;93492.31;;;7.25;100.00
6198;BME280;3132;42.622;23.328;2022-12-18T00:04:06;93496.72;;;7.41;100.00
6198;BME280;3132;42.622;23.328;2022-12-18T00:06:34;93500.50;;;7.34;100.00
6198;BME280;3132;42.622;23.328;2022-12-18T00:09:00;93507.09;;;7.08;100.00
6198;BME280;3132;42.622;23.328;2022-12-18T00:11:29;93506.94;;;6.98;100.00
6198;BME280;3132;42.622;23.328;2022-12-18T00:13:56;93493.72;;;7.00;100.00
6198;BME280;3132;42.622;23.328;2022-12-18T00:16:23;93519.66;;;6.83;100.00
6198;BME280;3132;42.622;23.328;2022-12-18T00:18:51;93498.72;;;6.73;100.00
6198;BME280;3132;42.622;23.328;2022-12-18T00:21:18;93516.38;;;6.88;100.00
6198;BME280;3132;42.622;23.328;2022-12-18T00:23:45;93523.13;;;7.05;100.00
6198;BME280;3132;42.622;23.328;2022-12-18T00:26:13;93528.03;;;7.18;100.00
6198;BME280;3132;42.622;23.328;2022-12-18T00:28:40;93532.31;;;6.96;100.00
6198;BME280;3132;42.622;23.328;2022-12-18T00:31:08;93533.81;;;6.92;100.00
6198;BME280;3132;42.622;23.328;2022-12-18T00:33:34;93522.94;;;6.79;100.00
6198;BME280;3132;42.622;23.328;2022-12-18T00:38:29;93536.88;;;6.89;100.00
6198;BME280;3132;42.622;23.328;2022-12-18T00:40:54;93533.03;;;7.08;100.00
6198;BME280;3132;42.622;23.328;2022-12-18T00:43:20;93536.69;;;7.07;100.00
6198;BME280;3132;42.622;23.328;2022-12-18T00:45:45;93529.72;;;6.96;100.00
6198;BME280;3132;42.622;23.328;2022-12-18T00:48:10;93543.28;;;6.98;100.00
6198;BME280;3132;42.622;23.328;2022-12-18T00:50:36;93543.53;;;6.57;100.00
6198;BME280;3132;42.622;23.328;2022-12-18T00:53:01;93544.44;;;6.63;100.00
6198;BME280;3132;42.622;23.328;2022-12-18T00:55:26;93546.47;;;6.61;100.00
6198;BME280;3132;42.622;23.328;2022-12-18T00:57:52;93551.03;;;6.42;100.00
6198;BME280;3132;42.622;23.328;2022-12-18T01:00:17;93547.88;;;6.40;100.00
6198;BME280;3132;42.622;23.328;2022-12-18T01:02:43;93555.78;;;6.45;100.00
6198;BME280;3132;42.622;23.328;2022-12-18T01:05:10;93559.16;;;6.45;100.00
6198;BME280;3132;42.622;23.328;2022-12-18T01:07:35;93554.94;;;6.56;100.00
6198;BME280;3132;42.622;23.328;2022-12-18T01:10:01;93559.03;;;6.52;100.00
6198;BME280;3132;42.622;23.328;2022-12-18T01:12:26;93570.06;;;6.47;100.00
6198;BME280;3132;42.622;23.328;2022-12-18T01:14:52;93552.38;;;6.44;100.00
6198;BME280;3132;42.622;23.328;2022-12-18T01:17:17;93566.28;;;6.38;100.00
6198;BME280;3132;42.622;23.328;2022-12-18T01:19:42;93551.22;;;6.12;100.00
6198;BME280;3132;42.622;23.328;2022-12-18T01:22:08;93568.38;;;6.02;100.00
6198;BME280;3132;42.622;23.328;2022-12-18T01:24:33;93570.28;;;5.95;100.00
6198;BME280;3132;42.622;23.328;2022-12-18T01:26:59;93523.53;;;5.44;100.00
6198;BME280;3132;42.622;23.328;2022-12-18T01:29:24;93576.78;;;5.51;100.00
6198;BME280;3132;42.622;23.328;2022-12-18T01:31:49;93575.75;;;5.41;100.00
6198;BME280;3132;42.622;23.328;2022-12-18T01:34:15;93573.97;;;5.53;100.00
6198;BME280;3132;42.622;23.328;2022-12-18T01:36:40;93581.28;;;5.56;100.00
6198;BME280;3132;42.622;23.328;2022-12-18T01:39:10;93585.66;;;5.44;100.00
6198;BME280;3132;42.622;23.328;2022-12-18T01:41:35;93591.22;;;5.70;100.00
6198;BME280;3132;42.622;23.328;2022-12-18T01:49:51;93584.53;;;5.40;100.00
6198;BME280;3132;42.622;23.328;2022-12-18T01:52:18;93569.31;;;5.43;100.00
6198;BME280;3132;42.622;23.328;2022-12-18T01:54:46;93586.34;;;5.62;100.00
6198;BME280;3132;42.622;23.328;2022-12-18T01:57:13;93589.84;;;5.79;100.00
6198;BME280;3132;42.622;23.328;2022-12-18T01:59:38;93588.03;;;5.45;100.00
6198;BME280;3132;42.622;23.328;2022-12-18T02:02:06;93588.69;;;5.29;100.00
6198;BME280;3132;42.622;23.328;2022-12-18T02:04:32;93587.09;;;5.28;100.00
6198;BME280;3132;42.622;23.328;2022-12-18T02:12:24;93596.91;;;5.38;100.00
6198;BME280;3132;42.622;23.328;2022-12-18T02:15:13;93607.31;;;5.61;100.00
6198;BME280;3132;42.622;23.328;2022-12-18T02:17:49;93608.16;;;5.43;100.00
6198;BME280;3132;42.622;23.328;2022-12-18T02:23:12;93616.94;;;5.31;100.00
6198;BME280;3132;42.622;23.328;2022-12-18T02:29:00;93612.75;;;5.30;100.00
6198;BME280;3132;42.622;23.328;2022-12-18T02:31:31;93599.28;;;5.39;100.00
6198;BME280;3132;42.622;23.328;2022-12-18T02:34:02;93615.41;;;5.53;100.00
6198;BME280;3132;42.622;23.328;2022-12-18T02:36:28;93604.72;;;5.49;100.00
6198;BME280;3132;42.622;23.328;2022-12-18T02:38:55;93611.06;;;5.24;100.00
6198;BME280;3132;42.622;23.328;2022-12-18T02:41:23;93613.53;;;5.19;100.00
6198;BME280;3132;42.622;23.328;2022-12-18T02:43:54;93618.75;;;5.42;100.00
6198;BME280;3132;42.622;23.328;2022-12-18T02:46:33;93626.09;;;5.56;100.00
6198;BME280;3132;42.622;23.328;2022-12-18T02:49:35;93622.00;;;5.37;100.00
6198;BME280;3132;42.622;23.328;2022-12-18T02:52:07;93616.16;;;5.30;100.00
6198;BME280;3132;42.622;23.328;2022-12-18T03:00:30;93621.19;;;5.14;100.00
6198;BME280;3132;42.622;23.328;2022-12-18T03:02:59;93629.94;;;5.13;100.00
6198;BME280;3132;42.622;23.328;2022-12-18T03:08:09;93634.16;;;5.25;100.00
6198;BME280;3132;42.622;23.328;2022-12-18T03:10:42;93632.38;;;5.08;100.00
6198;BME280;3132;42.622;23.328;2022-12-18T03:13:14;93635.38;;;5.23;100.00
6198;BME280;3132;42.622;23.328;2022-12-18T03:15:47;93622.88;;;5.20;100.00
6198;BME280;3132;42.622;23.328;2022-12-18T03:18:20;93639.94;;;5.09;100.00
6198;BME280;3132;42.622;23.328;2022-12-18T03:20:48;93627.44;;;5.06;100.00
6198;BME280;3132;42.622;23.328;2022-12-18T03:23:21;93640.28;;;5.13;100.00
6198;BME280;3132;42.622;23.328;2022-12-18T03:25:49;93640.81;;;5.03;100.00
6198;BME280;3132;42.622;23.328;2022-12-18T03:28:20;93641.75;;;5.09;100.00
6198;BME280;3132;42.622;23.328;2022-12-18T03:30:47;93644.34;;;5.09;100.00
6198;BME280;3132;42.622;23.328;2022-12-18T03:33:30;93638.72;;;5.12;100.00
6198;BME280;3132;42.622;23.328;2022-12-18T03:35:57;93654.53;;;5.33;100.00
6198;BME280;3132;42.622;23.328;2022-12-18T03:38:22;93653.09;;;5.08;100.00
6198;BME280;3132;42.622;23.328;2022-12-18T03:48:48;93677.22;;;4.90;100.00
6198;BME280;3132;42.622;23.328;2022-12-18T03:51:24;93663.56;;;4.83;100.00
6198;BME280;3132;42.622;23.328;2022-12-18T03:53:58;93674.94;;;4.82;100.00
6198;BME280;3132;42.622;23.328;2022-12-18T03:56:28;93669.91;;;4.69;100.00
6198;BME280;3132;42.622;23.328;2022-12-18T03:58:55;93685.16;;;4.59;100.00
6198;BME280;3132;42.622;23.328;2022-12-18T04:01:26;93678.66;;;4.68;100.00
6198;BME280;3132;42.622;23.328;2022-12-18T04:03:53;93690.53;;;4.75;100.00
6198;BME280;3132;42.622;23.328;2022-12-18T04:06:21;93681.69;;;4.65;100.00
6198;BME280;3132;42.622;23.328;2022-12-18T04:08:47;93697.22;;;4.65;100.00
6198;BME280;3132;42.622;23.328;2022-12-18T04:11:12;93694.31;;;4.55;100.00
6198;BME280;3132;42.622;23.328;2022-12-18T04:13:38;93699.97;;;4.45;100.00
6198;BME280;3132;42.622;23.328;2022-12-18T04:16:04;93694.97;;;4.32;100.00
6198;BME280;3132;42.622;23.328;2022-12-18T04:18:30;93700.25;;;4.37;100.00
6198;BME280;3132;42.622;23.328;2022-12-18T04:20:55;93715.22;;;4.35;100.00
6198;BME280;3132;42.622;23.328;2022-12-18T04:23:20;93693.66;;;4.23;100.00
6198;BME280;3132;42.622;23.328;2022-12-18T04:25:49;93714.19;;;4.36;100.00
6198;BME280;3132;42.622;23.328;2022-12-18T04:28:14;93690.28;;;4.23;100.00
6198;BME280;3132;42.622;23.328;2022-12-18T04:30:40;93715.91;;;4.24;100.00
6198;BME280;3132;42.622;23.328;2022-12-18T04:33:10;93721.09;;;4.24;100.00
6198;BME280;3132;42.622;23.328;2022-12-18T04:35:35;93722.91;;;4.17;100.00
6198;BME280;3132;42.622;23.328;2022-12-18T04:38:00;93727.09;;;4.18;100.00
6198;BME280;3132;42.622;23.328;2022-12-18T04:40:26;93715.28;;;4.04;100.00
6198;BME280;3132;42.622;23.328;2022-12-18T04:42:51;93732.00;;;4.26;100.00
6198;BME280;3132;42.622;23.328;2022-12-18T04:45:16;93733.34;;;4.11;100.00
6198;BME280;3132;42.622;23.328;2022-12-18T04:47:42;93746.88;;;4.31;100.00
6198;BME280;3132;42.622;23.328;2022-12-18T04:50:07;93748.72;;;4.24;100.00
6198;BME280;3132;42.622;23.328;2022-12-18T04:52:33;93751.91;;;4.01;100.00
6198;BME280;3132;42.622;23.328;2022-12-18T04:54:58;93748.75;;;4.17;100.00
6198;BME280;3132;42.622;23.328;2022-12-18T04:57:24;93725.69;;;3.98;100.00
6198;BME280;3132;42.622;23.328;2022-12-18T04:59:49;93742.91;;;4.04;100.00
6198;BME280;3132;42.622;23.328;2022-12-18T05:02:14;93758.78;;;4.07;100.00
6198;BME280;3132;42.622;23.328;2022-12-18T05:04:40;93753.63;;;4.07;100.00
6198;BME280;3132;42.622;23.328;2022-12-18T05:07:05;93754.47;;;4.01;100.00
6198;BME280;3132;42.622;23.328;2022-12-18T05:09:30;93764.59;;;4.03;100.00
6198;BME280;3132;42.622;23.328;2022-12-18T05:11:56;93778.91;;;3.99;100.00
6198;BME280;3132;42.622;23.328;2022-12-18T05:14:21;93750.84;;;4.09;100.00
6198;BME280;3132;42.622;23.328;2022-12-18T05:16:47;93784.22;;;4.10;100.00
6198;BME280;3132;42.622;23.328;2022-12-18T05:19:12;93775.66;;;4.10;100.00
6198;BME280;3132;42.622;23.328;2022-12-18T05:21:37;93777.19;;;3.93;100.00
6198;BME280;3132;42.622;23.328;2022-12-18T05:24:03;93786.97;;;4.15;100.00
6198;BME280;3132;42.622;23.328;2022-12-18T05:26:28;93798.06;;;4.16;100.00
6198;BME280;3132;42.622;23.328;2022-12-18T05:28:54;93798.28;;;4.14;100.00
6198;BME280;3132;42.622;23.328;2022-12-18T05:31:19;93797.59;;;4.01;100.00
6198;BME280;3132;42.622;23.328;2022-12-18T05:33:44;93808.94;;;4.24;100.00
6198;BME280;3132;42.622;23.328;2022-12-18T05:36:10;93803.19;;;4.22;100.00
6198;BME280;3132;42.622;23.328;2022-12-18T05:38:37;93816.97;;;4.41;100.00
6198;BME280;3132;42.622;23.328;2022-12-18T05:41:04;93810.06;;;4.10;100.00
6198;BME280;3132;42.622;23.328;2022-12-18T05:43:30;93813.44;;;4.11;100.00
6198;BME280;3132;42.622;23.328;2022-12-18T05:45:56;93818.00;;;4.09;100.00
6198;BME280;3132;42.622;23.328;2022-12-18T05:48:22;93822.72;;;4.18;100.00
6198;BME280;3132;42.622;23.328;2022-12-18T05:50:49;93805.94;;;4.27;100.00
6198;BME280;3132;42.622;23.328;2022-12-18T05:53:17;93825.47;;;4.23;99.96
6198;BME280;3132;42.622;23.328;2022-12-18T05:55:43;93835.47;;;4.13;100.00
6198;BME280;3132;42.622;23.328;2022-12-18T05:58:10;93828.94;;;4.35;100.00
6198;BME280;3132;42.622;23.328;2022-12-18T06:00:38;93840.56;;;4.26;100.00
6198;BME280;3132;42.622;23.328;2022-12-18T06:03:09;93833.97;;;3.99;100.00
6198;BME280;3132;42.622;23.328;2022-12-18T06:05:44;93831.03;;;3.89;100.00
6198;BME280;3132;42.622;23.328;2022-12-18T06:08:11;93844.38;;;3.86;100.00
6198;BME280;3132;42.622;23.328;2022-12-18T06:10:37;93846.22;;;3.79;100.00
6198;BME280;3132;42.622;23.328;2022-12-18T06:13:02;93842.97;;;3.90;100.00
6198;BME280;3132;42.622;23.328;2022-12-18T06:15:28;93825.31;;;3.87;100.00
6198;BME280;3132;42.622;23.328;2022-12-18T06:17:53;93847.91;;;3.98;100.00
6198;BME280;3132;42.622;23.328;2022-12-18T06:20:19;93855.47;;;3.93;100.00
6198;BME280;3132;42.622;23.328;2022-12-18T06:22:46;93846.13;;;3.92;100.00
6198;BME280;3132;42.622;23.328;2022-12-18T06:25:11;93859.31;;;3.84;100.00
6198;BME280;3132;42.622;23.328;2022-12-18T06:27:37;93855.44;;;4.00;100.00
6198;BME280;3132;42.622;23.328;2022-12-18T06:30:03;93853.41;;;4.02;100.00
6198;BME280;3132;42.622;23.328;2022-12-18T06:32:28;93854.81;;;4.04;100.00
6198;BME280;3132;42.622;23.328;2022-12-18T06:34:54;93869.66;;;4.15;98.46
6198;BME280;3132;42.622;23.328;2022-12-18T06:37:20;93865.25;;;4.16;98.24
6198;BME280;3132;42.622;23.328;2022-12-18T06:39:46;93857.28;;;4.17;98.84
6198;BME280;3132;42.622;23.328;2022-12-18T06:42:11;93871.88;;;4.36;96.98
6198;BME280;3132;42.622;23.328;2022-12-18T06:44:37;93869.75;;;4.27;97.45
6198;BME280;3132;42.622;23.328;2022-12-18T06:47:02;93881.13;;;4.26;96.01
6198;BME280;3132;42.622;23.328;2022-12-18T06:49:27;93880.19;;;4.14;96.68
6198;BME280;3132;42.622;23.328;2022-12-18T06:51:53;93881.91;;;4.26;96.97
6198;BME280;3132;42.622;23.328;2022-12-18T06:54:18;93871.25;;;4.10;96.11
6198;BME280;3132;42.622;23.328;2022-12-18T06:56:46;93893.06;;;4.20;96.24
6198;BME280;3132;42.622;23.328;2022-12-18T06:59:12;93896.22;;;4.22;94.51
6198;BME280;3132;42.622;23.328;2022-12-18T07:01:38;93898.91;;;4.09;94.54
6198;BME280;3132;42.622;23.328;2022-12-18T07:04:03;93893.91;;;4.14;94.96
6198;BME280;3132;42.622;23.328;2022-12-18T07:06:29;93905.94;;;4.27;95.69
6198;BME280;3132;42.622;23.328;2022-12-18T07:08:54;93903.53;;;4.32;93.17
6198;BME280;3132;42.622;23.328;2022-12-18T07:11:20;93906.88;;;4.39;92.81
6198;BME280;3132;42.622;23.328;2022-12-18T07:13:46;93885.56;;;4.12;92.98
6198;BME280;3132;42.622;23.328;2022-12-18T07:16:17;93906.09;;;4.38;92.19
6198;BME280;3132;42.622;23.328;2022-12-18T07:18:43;93910.06;;;4.34;92.34
6198;BME280;3132;42.622;23.328;2022-12-18T07:21:12;93904.47;;;4.37;92.45
6198;BME280;3132;42.622;23.328;2022-12-18T07:23:38;93912.81;;;4.39;91.57
6198;BME280;3132;42.622;23.328;2022-12-18T07:26:05;93908.50;;;4.33;91.27
6198;BME280;3132;42.622;23.328;2022-12-18T07:28:32;93898.66;;;4.17;92.55
6198;BME280;3132;42.622;23.328;2022-12-18T07:30:58;93918.09;;;4.26;90.54
6198;BME280;3132;42.622;23.328;2022-12-18T07:33:24;93918.88;;;4.27;90.04
6198;BME280;3132;42.622;23.328;2022-12-18T07:35:50;93924.22;;;4.32;91.19
6198;BME280;3132;42.622;23.328;2022-12-18T07:38:15;93923.19;;;4.33;90.78
6198;BME280;3132;42.622;23.328;2022-12-18T07:40:40;93931.53;;;4.41;93.45
6198;BME280;3132;42.622;23.328;2022-12-18T07:43:05;93918.69;;;4.22;91.81
6198;BME280;3132;42.622;23.328;2022-12-18T07:45:31;93928.09;;;4.16;91.46
6198;BME280;3132;42.622;23.328;2022-12-18T07:47:56;93934.59;;;4.25;92.15
6198;BME280;3132;42.622;23.328;2022-12-18T07:50:22;93942.59;;;4.48;90.93
6198;BME280;3132;42.622;23.328;2022-12-18T07:52:47;93938.91;;;4.62;90.76
6198;BME280;3132;42.622;23.328;2022-12-18T07:55:12;93943.78;;;4.52;92.92
6198;BME280;3132;42.622;23.328;2022-12-18T07:57:38;93942.03;;;4.46;91.57
6198;BME280;3132;42.622;23.328;2022-12-18T08:00:04;93952.22;;;4.35;89.47
6198;BME280;3132;42.622;23.328;2022-12-18T08:02:31;93946.78;;;4.18;90.17
6198;BME280;3132;42.622;23.328;2022-12-18T08:04:56;93942.56;;;4.17;89.54
6198;BME280;3132;42.622;23.328;2022-12-18T08:07:22;93953.50;;;4.19;90.51
6198;BME280;3132;42.622;23.328;2022-12-18T08:09:47;93958.44;;;4.27;90.95
6198;BME280;3132;42.622;23.328;2022-12-18T08:12:12;93970.53;;;4.33;91.21
6198;BME280;3132;42.622;23.328;2022-12-18T08:14:38;93973.78;;;4.22;91.12
6198;BME280;3132;42.622;23.328;2022-12-18T08:17:03;93984.81;;;4.36;91.31
6198;BME280;3132;42.622;23.328;2022-12-18T08:19:28;93985.13;;;4.21;92.41
6198;BME280;3132;42.622;23.328;2022-12-18T08:21:54;93985.50;;;4.25;93.00
6198;BME280;3132;42.622;23.328;2022-12-18T08:24:19;93991.88;;;4.22;93.27
6198;BME280;3132;42.622;23.328;2022-12-18T08:26:44;93988.22;;;4.36;92.55
6198;BME280;3132;42.622;23.328;2022-12-18T08:29:10;93995.25;;;4.23;92.18
6198;BME280;3132;42.622;23.328;2022-12-18T08:31:35;93978.94;;;4.22;92.54
6198;BME280;3132;42.622;23.328;2022-12-18T08:34:01;93999.34;;;4.43;93.01
6198;BME280;3132;42.622;23.328;2022-12-18T08:36:26;93997.72;;;4.42;91.71
6198;BME280;3132;42.622;23.328;2022-12-18T08:38:52;94004.75;;;4.35;90.77
6198;BME280;3132;42.622;23.328;2022-12-18T08:41:18;94006.31;;;4.36;91.85
6198;BME280;3132;42.622;23.328;2022-12-18T08:43:43;93993.38;;;4.36;92.49
6198;BME280;3132;42.622;23.328;2022-12-18T08:46:34;94015.94;;;4.23;93.04
6198;BME280;3132;42.622;23.328;2022-12-18T08:48:59;94011.84;;;4.46;92.15
6198;BME280;3132;42.622;23.328;2022-12-18T08:51:25;94014.72;;;4.19;92.77
6198;BME280;3132;42.622;23.328;2022-12-18T08:53:50;93990.16;;;4.03;92.42
6198;BME280;3132;42.622;23.328;2022-12-18T08:56:16;93997.81;;;4.29;91.40
6198;BME280;3132;42.622;23.328;2022-12-18T08:58:42;94006.25;;;4.49;95.60
6198;BME280;3132;42.622;23.328;2022-12-18T09:01:09;94006.97;;;4.25;92.56
6198;BME280;3132;42.622;23.328;2022-12-18T09:03:35;94008.84;;;4.49;93.94
6198;BME280;3132;42.622;23.328;2022-12-18T09:06:00;94005.44;;;4.55;91.87
6198;BME280;3132;42.622;23.328;2022-12-18T09:08:26;93991.91;;;4.53;92.28
6198;BME280;3132;42.622;23.328;2022-12-18T09:10:52;94005.72;;;4.72;93.05
6198;BME280;3132;42.622;23.328;2022-12-18T09:13:18;94001.09;;;4.49;92.91
6198;BME280;3132;42.622;23.328;2022-12-18T09:15:46;94003.84;;;4.54;92.57
6198;BME280;3132;42.622;23.328;2022-12-18T09:18:14;94001.94;;;4.74;92.49
6198;BME280;3132;42.622;23.328;2022-12-18T09:20:40;93991.00;;;4.72;92.04
6198;BME280;3132;42.622;23.328;2022-12-18T09:23:05;94004.22;;;4.51;92.42
6198;BME280;3132;42.622;23.328;2022-12-18T09:25:32;94001.78;;;4.25;93.71
6198;BME280;3132;42.622;23.328;2022-12-18T09:28:09;93996.09;;;4.10;94.75
6198;BME280;3132;42.622;23.328;2022-12-18T09:30:38;93982.44;;;4.34;94.17
6198;BME280;3132;42.622;23.328;2022-12-18T09:33:03;94004.44;;;4.50;93.28
6198;BME280;3132;42.622;23.328;2022-12-18T09:35:29;94005.06;;;4.45;92.10
6198;BME280;3132;42.622;23.328;2022-12-18T09:37:54;94006.03;;;4.13;94.28
6198;BME280;3132;42.622;23.328;2022-12-18T09:40:23;94002.63;;;4.57;93.25
6198;BME280;3132;42.622;23.328;2022-12-18T09:42:57;94009.28;;;4.40;93.71
6198;BME280;3132;42.622;23.328;2022-12-18T09:45:23;94015.50;;;4.32;93.27
6198;BME280;3132;42.622;23.328;2022-12-18T09:47:51;94009.41;;;4.51;93.93
6198;BME280;3132;42.622;23.328;2022-12-18T09:50:25;94011.34;;;4.62;92.47
6198;BME280;3132;42.622;23.328;2022-12-18T09:52:54;94010.97;;;4.59;94.06
6198;BME280;3132;42.622;23.328;2022-12-18T09:55:35;93998.19;;;4.64;91.59
6198;BME280;3132;42.622;23.328;2022-12-18T09:58:32;94009.47;;;4.76;94.61
6198;BME280;3132;42.622;23.328;2022-12-18T10:01:00;93986.66;;;4.97;93.40
6198;BME280;3132;42.622;23.328;2022-12-18T10:03:26;94007.81;;;4.57;92.98
6198;BME280;3132;42.622;23.328;2022-12-18T10:05:58;94000.91;;;4.75;90.50
6198;BME280;3132;42.622;23.328;2022-12-18T10:11:46;94002.84;;;4.86;85.90
6198;BME280;3132;42.622;23.328;2022-12-18T10:22:39;94018.13;;;4.63;89.22
6198;BME280;3132;42.622;23.328;2022-12-18T10:28:14;94014.50;;;4.64;89.83
6198;BME280;3132;42.622;23.328;2022-12-18T10:30:41;94020.16;;;4.48;89.69
6198;BME280;3132;42.622;23.328;2022-12-18T10:33:12;94008.00;;;4.55;87.69
6198;BME280;3132;42.622;23.328;2022-12-18T10:35:41;94017.00;;;4.46;88.04
6198;BME280;3132;42.622;23.328;2022-12-18T10:41:04;94015.31;;;4.65;88.29
6198;BME280;3132;42.622;23.328;2022-12-18T10:43:39;94007.78;;;4.19;90.78
6198;BME280;3132;42.622;23.328;2022-12-18T10:48:54;94008.47;;;4.39;88.91
6198;BME280;3132;42.622;23.328;2022-12-18T10:51:26;93996.50;;;4.07;88.59
6198;BME280;3132;42.622;23.328;2022-12-18T10:54:15;94007.78;;;4.19;88.45
6198;BME280;3132;42.622;23.328;2022-12-18T10:56:42;94010.03;;;4.09;88.89
6198;BME280;3132;42.622;23.328;2022-12-18T10:59:10;93988.94;;;4.12;88.04
6198;BME280;3132;42.622;23.328;2022-12-18T11:01:56;94005.00;;;4.21;88.94
6198;BME280;3132;42.622;23.328;2022-12-18T11:04:28;94002.66;;;4.50;88.29
6198;BME280;3132;42.622;23.328;2022-12-18T11:07:03;94005.69;;;4.41;86.58
6198;BME280;3132;42.622;23.328;2022-12-18T11:09:37;94009.97;;;4.16;84.71
6198;BME280;3132;42.622;23.328;2022-12-18T11:14:52;94006.50;;;3.91;84.74
6198;BME280;3132;42.622;23.328;2022-12-18T11:17:28;93987.03;;;3.88;86.82
6198;BME280;3132;42.622;23.328;2022-12-18T11:22:35;94009.56;;;4.19;83.26
6198;BME280;3132;42.622;23.328;2022-12-18T11:25:17;94003.88;;;3.97;82.20
6198;BME280;3132;42.622;23.328;2022-12-18T11:27:51;94010.19;;;4.14;81.11
6198;BME280;3132;42.622;23.328;2022-12-18T11:32:51;94006.47;;;3.97;80.79
6198;BME280;3132;42.622;23.328;2022-12-18T11:35:30;94005.91;;;3.95;80.61
6198;BME280;3132;42.622;23.328;2022-12-18T11:38:04;93986.31;;;3.68;81.42
6198;BME280;3132;42.622;23.328;2022-12-18T11:40:35;94004.69;;;3.98;81.64
6198;BME280;3132;42.622;23.328;2022-12-18T11:43:35;94009.47;;;3.94;78.66
6198;BME280;3132;42.622;23.328;2022-12-18T11:46:06;94012.47;;;3.91;79.29
6198;BME280;3132;42.622;23.328;2022-12-18T11:48:49;94002.31;;;3.90;78.90
6198;BME280;3132;42.622;23.328;2022-12-18T11:51:25;93996.63;;;3.75;78.10
6198;BME280;3132;42.622;23.328;2022-12-18T11:53:53;94009.34;;;3.63;77.89
6198;BME280;3132;42.622;23.328;2022-12-18T12:04:17;94010.03;;;4.03;77.61
6198;BME280;3132;42.622;23.328;2022-12-18T12:09:49;94010.06;;;3.90;78.91
6198;BME280;3132;42.622;23.328;2022-12-18T12:12:39;94011.41;;;4.12;80.60
6198;BME280;3132;42.622;23.328;2022-12-18T12:15:58;94001.09;;;3.99;80.21
6198;BME280;3132;42.622;23.328;2022-12-18T12:21:07;94011.59;;;4.17;79.55
6198;BME280;3132;42.622;23.328;2022-12-18T12:23:49;94018.22;;;4.00;80.24
6198;BME280;3132;42.622;23.328;2022-12-18T12:26:34;94010.88;;;3.97;82.12
6198;BME280;3132;42.622;23.328;2022-12-18T12:32:53;94011.44;;;4.49;81.45
6198;BME280;3132;42.622;23.328;2022-12-18T12:38:07;94019.94;;;4.56;81.28
6198;BME280;3132;42.622;23.328;2022-12-18T12:40:39;94023.81;;;4.72;81.60
6198;BME280;3132;42.622;23.328;2022-12-18T12:46:09;94019.91;;;4.19;79.64
6198;BME280;3132;42.622;23.328;2022-12-18T12:53:39;94030.63;;;4.22;81.58
6198;BME280;3132;42.622;23.328;2022-12-18T12:56:06;94027.09;;;4.10;81.15
6198;BME280;3132;42.622;23.328;2022-12-18T12:58:36;94032.25;;;4.23;81.27
6198;BME280;3132;42.622;23.328;2022-12-18T13:06:16;94035.97;;;4.34;81.31
6198;BME280;3132;42.622;23.328;2022-12-18T13:08:58;94039.53;;;4.33;81.64
6198;BME280;3132;42.622;23.328;2022-12-18T13:11:40;94042.56;;;4.23;81.41
6198;BME280;3132;42.622;23.328;2022-12-18T13:14:28;94056.06;;;4.25;80.49
6198;BME280;3132;42.622;23.328;2022-12-18T13:22:35;94061.31;;;3.99;82.93
6198;BME280;3132;42.622;23.328;2022-12-18T13:25:01;94063.06;;;4.25;82.03
6198;BME280;3132;42.622;23.328;2022-12-18T13:38:34;94064.84;;;4.18;83.52
6198;BME280;3132;42.622;23.328;2022-12-18T13:43:56;94069.41;;;4.22;83.67
6198;BME280;3132;42.622;23.328;2022-12-18T13:46:46;94079.94;;;4.21;83.48
6198;BME280;3132;42.622;23.328;2022-12-18T13:51:40;94081.31;;;4.30;82.72
6198;BME280;3132;42.622;23.328;2022-12-18T13:56:45;94085.50;;;4.31;86.22
6198;BME280;3132;42.622;23.328;2022-12-18T13:59:17;94093.28;;;4.18;83.37
6198;BME280;3132;42.622;23.328;2022-12-18T14:01:54;94081.16;;;4.18;83.20
6198;BME280;3132;42.622;23.328;2022-12-18T14:06:51;94080.34;;;4.24;84.45
6198;BME280;3132;42.622;23.328;2022-12-18T14:09:26;94094.59;;;4.46;82.43
6198;BME280;3132;42.622;23.328;2022-12-18T14:11:52;94088.22;;;4.36;83.49
6198;BME280;3132;42.622;23.328;2022-12-18T14:14:41;94095.06;;;4.17;83.59
6198;BME280;3132;42.622;23.328;2022-12-18T14:17:11;94092.06;;;4.20;84.12
6198;BME280;3132;42.622;23.328;2022-12-18T14:19:37;94101.44;;;4.08;84.46
6198;BME280;3132;42.622;23.328;2022-12-18T14:22:15;94109.41;;;4.07;85.32
6198;BME280;3132;42.622;23.328;2022-12-18T14:24:40;94114.94;;;4.23;84.59
6198;BME280;3132;42.622;23.328;2022-12-18T14:27:24;94103.84;;;4.03;84.27
6198;BME280;3132;42.622;23.328;2022-12-18T14:29:50;94110.22;;;4.01;84.75
6198;BME280;3132;42.622;23.328;2022-12-18T14:32:20;94101.09;;;3.85;87.15
6198;BME280;3132;42.622;23.328;2022-12-18T14:34:51;94103.09;;;4.53;88.80
6198;BME280;3132;42.622;23.328;2022-12-18T14:37:21;94092.25;;;4.32;86.15
6198;BME280;3132;42.622;23.328;2022-12-18T14:40:13;94102.38;;;4.33;85.60
6198;BME280;3132;42.622;23.328;2022-12-18T14:42:38;94104.97;;;4.33;84.26
6198;BME280;3132;42.622;23.328;2022-12-18T14:45:32;94103.06;;;4.09;84.59
6198;BME280;3132;42.622;23.328;2022-12-18T14:48:06;94102.59;;;4.25;83.47
6198;BME280;3132;42.622;23.328;2022-12-18T14:50:32;94091.72;;;4.10;83.72
6198;BME280;3132;42.622;23.328;2022-12-18T14:52:57;94105.19;;;4.19;84.94
6198;BME280;3132;42.622;23.328;2022-12-18T14:55:23;94104.97;;;4.27;82.18
6198;BME280;3132;42.622;23.328;2022-12-18T14:57:52;94112.59;;;3.96;81.10
6198;BME280;3132;42.622;23.328;2022-12-18T15:00:21;94112.63;;;3.83;80.98
6198;BME280;3132;42.622;23.328;2022-12-18T15:02:50;94092.59;;;3.65;81.62
6198;BME280;3132;42.622;23.328;2022-12-18T15:05:26;94117.41;;;3.66;81.73
6198;BME280;3132;42.622;23.328;2022-12-18T15:07:54;94116.63;;;3.53;82.80
6198;BME280;3132;42.622;23.328;2022-12-18T15:10:30;94120.59;;;3.81;81.37
6198;BME280;3132;42.622;23.328;2022-12-18T15:23:26;94128.09;;;3.96;81.92
6198;BME280;3132;42.622;23.328;2022-12-18T15:25:59;94127.34;;;3.89;82.16
6198;BME280;3132;42.622;23.328;2022-12-18T15:33:39;94146.22;;;3.76;80.72
6198;BME280;3132;42.622;23.328;2022-12-18T15:36:11;94107.69;;;3.42;80.21
6198;BME280;3132;42.622;23.328;2022-12-18T15:38:37;94147.19;;;3.49;80.34
6198;BME280;3132;42.622;23.328;2022-12-18T15:41:03;94141.84;;;3.57;79.80
6198;BME280;3132;42.622;23.328;2022-12-18T15:43:28;94153.75;;;3.58;79.80
6198;BME280;3132;42.622;23.328;2022-12-18T15:48:32;94162.28;;;3.52;79.13
6198;BME280;3132;42.622;23.328;2022-12-18T15:50:58;94169.22;;;3.39;79.67